sensor_id;sensor_type;location;lat;lon;timestamp;P1;durP1;ratioP1;P2;durP2;ratioP2
35592;SDS011;64447;52.140;5.602;2023-01-26T00:02:18;134.25;;;47.45;;
35592;SDS011;64447;52.140;5.602;2023-01-26T00:04:44;132.13;;;47.80;;
35592;SDS011;64447;52.140;5.602;2023-01-26T00:07:10;125.00;;;45.33;;
35592;SDS011;64447;52.140;5.602;2023-01-26T00:09:35;116.20;;;44.83;;
35592;SDS011;64447;52.140;5.602;2023-01-26T00:12:01;123.28;;;44.97;;
35592;SDS011;64447;52.140;5.602;2023-01-26T00:14:26;122.28;;;45.90;;
35592;SDS011;64447;52.140;5.602;2023-01-26T00:20:14;126.93;;;45.88;;
35592;SDS011;64447;52.140;5.602;2023-01-26T00:22:40;120.50;;;46.25;;
35592;SDS011;64447;52.140;5.602;2023-01-26T00:25:05;127.35;;;45.47;;
35592;SDS011;64447;52.140;5.602;2023-01-26T00:27:31;121.45;;;43.30;;
35592;SDS011;64447;52.140;5.602;2023-01-26T00:29:57;117.57;;;44.15;;
35592;SDS011;64447;52.140;5.602;2023-01-26T00:32:22;116.93;;;44.22;;
35592;SDS011;64447;52.140;5.602;2023-01-26T00:34:48;109.28;;;41.38;;
35592;SDS011;64447;52.140;5.602;2023-01-26T00:37:13;117.05;;;45.00;;
35592;SDS011;64447;52.140;5.602;2023-01-26T00:39:39;101.95;;;40.75;;
35592;SDS011;64447;52.140;5.602;2023-01-26T00:42:04;114.32;;;43.45;;
35592;SDS011;64447;52.140;5.602;2023-01-26T00:44:30;109.97;;;41.80;;
35592;SDS011;64447;52.140;5.602;2023-01-26T00:50:18;106.72;;;39.92;;
35592;SDS011;64447;52.140;5.602;2023-01-26T00:52:43;104.55;;;40.67;;
35592;SDS011;64447;52.140;5.602;2023-01-26T00:55:09;108.25;;;42.03;;
35592;SDS011;64447;52.140;5.602;2023-01-26T00:57:34;105.55;;;42.08;;
35592;SDS011;64447;52.140;5.602;2023-01-26T01:00:00;101.85;;;40.33;;
35592;SDS011;64447;52.140;5.602;2023-01-26T01:05:47;98.90;;;37.97;;
35592;SDS011;64447;52.140;5.602;2023-01-26T01:08:13;104.25;;;39.70;;
35592;SDS011;64447;52.140;5.602;2023-01-26T01:10:38;95.75;;;38.42;;
35592;SDS011;64447;52.140;5.602;2023-01-26T01:13:04;108.35;;;39.67;;
35592;SDS011;64447;52.140;5.602;2023-01-26T01:15:30;101.57;;;39.70;;
35592;SDS011;64447;52.140;5.602;2023-01-26T01:17:55;95.15;;;38.70;;
35592;SDS011;64447;52.140;5.602;2023-01-26T01:20:21;94.53;;;35.92;;
35592;SDS011;64447;52.140;5.602;2023-01-26T01:22:46;100.30;;;39.17;;
35592;SDS011;64447;52.140;5.602;2023-01-26T01:25:12;104.00;;;39.70;;
35592;SDS011;64447;52.140;5.602;2023-01-26T01:27:37;97.68;;;38.03;;
35592;SDS011;64447;52.140;5.602;2023-01-26T01:30:03;102.25;;;39.33;;
35592;SDS011;64447;52.140;5.602;2023-01-26T01:35:57;90.60;;;36.40;;
35592;SDS011;64447;52.140;5.602;2023-01-26T01:38:24;98.68;;;40.00;;
35592;SDS011;64447;52.140;5.602;2023-01-26T01:40:51;93.05;;;37.40;;
35592;SDS011;64447;52.140;5.602;2023-01-26T01:43:17;94.00;;;37.20;;
35592;SDS011;64447;52.140;5.602;2023-01-26T01:45:44;85.57;;;35.72;;
35592;SDS011;64447;52.140;5.602;2023-01-26T01:48:57;90.57;;;36.13;;
35592;SDS011;64447;52.140;5.602;2023-01-26T01:51:03;91.70;;;35.17;;
35592;SDS011;64447;52.140;5.602;2023-01-26T01:53:32;84.55;;;36.97;;
35592;SDS011;64447;52.140;5.602;2023-01-26T01:56:03;84.68;;;35.28;;
35592;SDS011;64447;52.140;5.602;2023-01-26T01:58:32;84.18;;;34.67;;
35592;SDS011;64447;52.140;5.602;2023-01-26T02:01:01;86.88;;;34.00;;
35592;SDS011;64447;52.140;5.602;2023-01-26T02:03:27;83.13;;;33.45;;
35592;SDS011;64447;52.140;5.602;2023-01-26T02:06:06;87.63;;;33.63;;
35592;SDS011;64447;52.140;5.602;2023-01-26T02:11:05;81.18;;;32.30;;
35592;SDS011;64447;52.140;5.602;2023-01-26T02:13:34;90.68;;;34.60;;
35592;SDS011;64447;52.140;5.602;2023-01-26T02:16:00;82.57;;;32.53;;
35592;SDS011;64447;52.140;5.602;2023-01-26T02:18:26;85.07;;;34.78;;
35592;SDS011;64447;52.140;5.602;2023-01-26T02:20:54;82.20;;;33.90;;
35592;SDS011;64447;52.140;5.602;2023-01-26T02:26:14;78.93;;;30.55;;
35592;SDS011;64447;52.140;5.602;2023-01-26T02:28:43;79.72;;;32.33;;
35592;SDS011;64447;52.140;5.602;2023-01-26T02:31:09;71.57;;;28.48;;
35592;SDS011;64447;52.140;5.602;2023-01-26T02:33:36;85.80;;;32.13;;
35592;SDS011;64447;52.140;5.602;2023-01-26T02:36:03;83.10;;;30.73;;
35592;SDS011;64447;52.140;5.602;2023-01-26T02:38:31;75.28;;;31.48;;
35592;SDS011;64447;52.140;5.602;2023-01-26T02:43:30;77.00;;;28.80;;
35592;SDS011;64447;52.140;5.602;2023-01-26T02:45:57;78.80;;;29.95;;
35592;SDS011;64447;52.140;5.602;2023-01-26T02:48:22;79.38;;;32.30;;
35592;SDS011;64447;52.140;5.602;2023-01-26T02:51:07;75.57;;;30.55;;
35592;SDS011;64447;52.140;5.602;2023-01-26T02:53:33;76.40;;;30.55;;
35592;SDS011;64447;52.140;5.602;2023-01-26T02:55:58;74.20;;;30.08;;
35592;SDS011;64447;52.140;5.602;2023-01-26T02:58:24;69.25;;;30.25;;
35592;SDS011;64447;52.140;5.602;2023-01-26T03:00:50;79.32;;;30.58;;
35592;SDS011;64447;52.140;5.602;2023-01-26T03:03:17;84.35;;;32.20;;
35592;SDS011;64447;52.140;5.602;2023-01-26T03:05:45;70.60;;;29.55;;
35592;SDS011;64447;52.140;5.602;2023-01-26T03:08:11;72.80;;;30.52;;
35592;SDS011;64447;52.140;5.602;2023-01-26T03:10:36;79.10;;;31.45;;
35592;SDS011;64447;52.140;5.602;2023-01-26T03:13:03;75.28;;;29.52;;
35592;SDS011;64447;52.140;5.602;2023-01-26T03:15:28;73.80;;;29.38;;
35592;SDS011;64447;52.140;5.602;2023-01-26T03:21:35;71.78;;;28.52;;
35592;SDS011;64447;52.140;5.602;2023-01-26T03:24:19;78.10;;;29.90;;
35592;SDS011;64447;52.140;5.602;2023-01-26T03:27:03;80.40;;;29.38;;
35592;SDS011;64447;52.140;5.602;2023-01-26T03:29:48;71.60;;;29.40;;
35592;SDS011;64447;52.140;5.602;2023-01-26T03:32:14;70.47;;;28.33;;
35592;SDS011;64447;52.140;5.602;2023-01-26T03:34:40;75.80;;;30.38;;
35592;SDS011;64447;52.140;5.602;2023-01-26T03:37:05;71.43;;;28.88;;
35592;SDS011;64447;52.140;5.602;2023-01-26T03:39:31;67.93;;;28.08;;
35592;SDS011;64447;52.140;5.602;2023-01-26T03:42:15;63.58;;;26.15;;
35592;SDS011;64447;52.140;5.602;2023-01-26T03:44:59;69.80;;;26.70;;
35592;SDS011;64447;52.140;5.602;2023-01-26T03:47:43;67.60;;;28.80;;
35592;SDS011;64447;52.140;5.602;2023-01-26T03:50:27;67.60;;;26.85;;
35592;SDS011;64447;52.140;5.602;2023-01-26T03:53:12;65.30;;;27.95;;
35592;SDS011;64447;52.140;5.602;2023-01-26T03:55:59;59.72;;;25.75;;
35592;SDS011;64447;52.140;5.602;2023-01-26T03:58:58;71.20;;;27.13;;
35592;SDS011;64447;52.140;5.602;2023-01-26T04:04:56;57.47;;;25.20;;
35592;SDS011;64447;52.140;5.602;2023-01-26T04:07:40;55.17;;;22.15;;
35592;SDS011;64447;52.140;5.602;2023-01-26T04:10:25;54.75;;;22.67;;
35592;SDS011;64447;52.140;5.602;2023-01-26T04:12:50;52.70;;;21.98;;
35592;SDS011;64447;52.140;5.602;2023-01-26T04:15:34;53.70;;;22.63;;
35592;SDS011;64447;52.140;5.602;2023-01-26T04:18:19;52.83;;;21.38;;
35592;SDS011;64447;52.140;5.602;2023-01-26T04:21:03;49.88;;;21.58;;
35592;SDS011;64447;52.140;5.602;2023-01-26T04:23:48;48.65;;;21.00;;
35592;SDS011;64447;52.140;5.602;2023-01-26T04:26:14;54.78;;;23.90;;
35592;SDS011;64447;52.140;5.602;2023-01-26T04:28:40;49.60;;;22.05;;
35592;SDS011;64447;52.140;5.602;2023-01-26T04:34:28;48.90;;;19.75;;
35592;SDS011;64447;52.140;5.602;2023-01-26T04:36:53;49.65;;;20.73;;
35592;SDS011;64447;52.140;5.602;2023-01-26T04:39:19;53.58;;;22.30;;
35592;SDS011;64447;52.140;5.602;2023-01-26T04:41:44;48.05;;;19.77;;
35592;SDS011;64447;52.140;5.602;2023-01-26T04:44:10;52.13;;;21.02;;
35592;SDS011;64447;52.140;5.602;2023-01-26T04:49:58;52.53;;;22.42;;
35592;SDS011;64447;52.140;5.602;2023-01-26T04:52:23;51.45;;;21.95;;
35592;SDS011;64447;52.140;5.602;2023-01-26T04:54:49;57.30;;;24.08;;
35592;SDS011;64447;52.140;5.602;2023-01-26T04:57:14;48.72;;;21.15;;
35592;SDS011;64447;52.140;5.602;2023-01-26T04:59:40;54.42;;;22.98;;
35592;SDS011;64447;52.140;5.602;2023-01-26T05:05:28;54.42;;;23.42;;
35592;SDS011;64447;52.140;5.602;2023-01-26T05:07:53;56.28;;;23.35;;
35592;SDS011;64447;52.140;5.602;2023-01-26T05:10:19;59.88;;;24.58;;
35592;SDS011;64447;52.140;5.602;2023-01-26T05:12:44;62.45;;;24.38;;
35592;SDS011;64447;52.140;5.602;2023-01-26T05:15:10;56.13;;;23.50;;
35592;SDS011;64447;52.140;5.602;2023-01-26T05:20:57;51.42;;;22.10;;
35592;SDS011;64447;52.140;5.602;2023-01-26T05:23:23;55.83;;;23.08;;
35592;SDS011;64447;52.140;5.602;2023-01-26T05:25:49;56.20;;;25.10;;
35592;SDS011;64447;52.140;5.602;2023-01-26T05:28:14;51.47;;;22.00;;
35592;SDS011;64447;52.140;5.602;2023-01-26T05:30:40;56.15;;;23.17;;
35592;SDS011;64447;52.140;5.602;2023-01-26T05:36:28;47.90;;;21.75;;
35592;SDS011;64447;52.140;5.602;2023-01-26T05:38:54;53.40;;;23.55;;
35592;SDS011;64447;52.140;5.602;2023-01-26T05:41:19;53.25;;;22.83;;
35592;SDS011;64447;52.140;5.602;2023-01-26T05:43:45;49.92;;;22.63;;
35592;SDS011;64447;52.140;5.602;2023-01-26T05:46:10;49.25;;;22.77;;
35592;SDS011;64447;52.140;5.602;2023-01-26T05:48:36;50.60;;;22.92;;
35592;SDS011;64447;52.140;5.602;2023-01-26T05:51:01;59.20;;;25.35;;
35592;SDS011;64447;52.140;5.602;2023-01-26T05:53:27;54.53;;;23.83;;
35592;SDS011;64447;52.140;5.602;2023-01-26T05:55:53;60.58;;;24.48;;
35592;SDS011;64447;52.140;5.602;2023-01-26T05:58:18;58.67;;;25.48;;
35592;SDS011;64447;52.140;5.602;2023-01-26T06:00:44;57.83;;;26.02;;
35592;SDS011;64447;52.140;5.602;2023-01-26T06:06:31;62.83;;;25.13;;
35592;SDS011;64447;52.140;5.602;2023-01-26T06:08:57;51.85;;;22.90;;
35592;SDS011;64447;52.140;5.602;2023-01-26T06:11:23;56.25;;;23.65;;
35592;SDS011;64447;52.140;5.602;2023-01-26T06:13:49;62.22;;;26.02;;
35592;SDS011;64447;52.140;5.602;2023-01-26T06:16:14;56.97;;;24.42;;
35592;SDS011;64447;52.140;5.602;2023-01-26T06:22:39;62.08;;;25.92;;
35592;SDS011;64447;52.140;5.602;2023-01-26T06:25:05;56.33;;;25.17;;
35592;SDS011;64447;52.140;5.602;2023-01-26T06:27:31;64.45;;;25.63;;
35592;SDS011;64447;52.140;5.602;2023-01-26T06:29:58;65.55;;;26.92;;
35592;SDS011;64447;52.140;5.602;2023-01-26T06:32:23;62.38;;;25.63;;
35592;SDS011;64447;52.140;5.602;2023-01-26T06:34:49;64.30;;;26.52;;
35592;SDS011;64447;52.140;5.602;2023-01-26T06:37:16;66.03;;;28.15;;
35592;SDS011;64447;52.140;5.602;2023-01-26T06:39:42;68.35;;;26.98;;
35592;SDS011;64447;52.140;5.602;2023-01-26T06:42:08;61.13;;;24.98;;
35592;SDS011;64447;52.140;5.602;2023-01-26T06:44:33;64.22;;;26.83;;
35592;SDS011;64447;52.140;5.602;2023-01-26T06:46:59;65.22;;;26.17;;
35592;SDS011;64447;52.140;5.602;2023-01-26T06:49:24;67.78;;;27.60;;
35592;SDS011;64447;52.140;5.602;2023-01-26T06:54:47;64.78;;;27.45;;
35592;SDS011;64447;52.140;5.602;2023-01-26T06:57:14;62.28;;;28.27;;
35592;SDS011;64447;52.140;5.602;2023-01-26T06:59:39;66.05;;;28.20;;
35592;SDS011;64447;52.140;5.602;2023-01-26T07:02:05;67.00;;;27.85;;
35592;SDS011;64447;52.140;5.602;2023-01-26T07:04:34;64.72;;;28.20;;
35592;SDS011;64447;52.140;5.602;2023-01-26T07:07:00;68.10;;;28.85;;
35592;SDS011;64447;52.140;5.602;2023-01-26T07:09:25;60.88;;;28.80;;
35592;SDS011;64447;52.140;5.602;2023-01-26T07:11:51;71.32;;;29.58;;
35592;SDS011;64447;52.140;5.602;2023-01-26T07:14:17;73.18;;;29.70;;
35592;SDS011;64447;52.140;5.602;2023-01-26T07:16:42;65.55;;;28.65;;
35592;SDS011;64447;52.140;5.602;2023-01-26T07:19:08;73.10;;;29.05;;
35592;SDS011;64447;52.140;5.602;2023-01-26T07:21:33;68.70;;;29.15;;
35592;SDS011;64447;52.140;5.602;2023-01-26T07:24:00;66.13;;;28.77;;
35592;SDS011;64447;52.140;5.602;2023-01-26T07:26:25;72.65;;;28.23;;
35592;SDS011;64447;52.140;5.602;2023-01-26T07:28:51;74.78;;;30.50;;
35592;SDS011;64447;52.140;5.602;2023-01-26T07:31:16;71.45;;;28.95;;
35592;SDS011;64447;52.140;5.602;2023-01-26T07:37:04;70.68;;;29.67;;
35592;SDS011;64447;52.140;5.602;2023-01-26T07:39:30;70.30;;;28.10;;
35592;SDS011;64447;52.140;5.602;2023-01-26T07:41:55;67.43;;;27.83;;
35592;SDS011;64447;52.140;5.602;2023-01-26T07:44:21;78.15;;;31.05;;
35592;SDS011;64447;52.140;5.602;2023-01-26T07:46:47;77.45;;;29.35;;
35592;SDS011;64447;52.140;5.602;2023-01-26T07:49:12;77.57;;;30.13;;
35592;SDS011;64447;52.140;5.602;2023-01-26T07:51:38;61.92;;;29.00;;
35592;SDS011;64447;52.140;5.602;2023-01-26T07:54:04;77.22;;;29.92;;
35592;SDS011;64447;52.140;5.602;2023-01-26T07:56:30;83.75;;;30.10;;
35592;SDS011;64447;52.140;5.602;2023-01-26T07:58:56;76.82;;;30.00;;
35592;SDS011;64447;52.140;5.602;2023-01-26T08:01:22;81.68;;;31.02;;
35592;SDS011;64447;52.140;5.602;2023-01-26T08:07:10;87.03;;;33.58;;
35592;SDS011;64447;52.140;5.602;2023-01-26T08:09:35;83.78;;;32.65;;
35592;SDS011;64447;52.140;5.602;2023-01-26T08:12:01;87.57;;;32.28;;
35592;SDS011;64447;52.140;5.602;2023-01-26T08:14:27;83.50;;;32.78;;
35592;SDS011;64447;52.140;5.602;2023-01-26T08:16:52;83.70;;;31.70;;
35592;SDS011;64447;52.140;5.602;2023-01-26T08:19:18;70.13;;;29.77;;
35592;SDS011;64447;52.140;5.602;2023-01-26T08:21:43;89.70;;;31.75;;
35592;SDS011;64447;52.140;5.602;2023-01-26T08:24:10;84.90;;;30.15;;
35592;SDS011;64447;52.140;5.602;2023-01-26T08:26:36;82.30;;;32.75;;
35592;SDS011;64447;52.140;5.602;2023-01-26T08:29:02;78.97;;;30.65;;
35592;SDS011;64447;52.140;5.602;2023-01-26T08:31:27;77.72;;;29.88;;
35592;SDS011;64447;52.140;5.602;2023-01-26T08:37:28;74.65;;;30.27;;
35592;SDS011;64447;52.140;5.602;2023-01-26T08:39:54;76.13;;;29.45;;
35592;SDS011;64447;52.140;5.602;2023-01-26T08:42:19;74.80;;;30.38;;
35592;SDS011;64447;52.140;5.602;2023-01-26T08:44:45;87.30;;;31.30;;
35592;SDS011;64447;52.140;5.602;2023-01-26T08:47:10;72.70;;;29.23;;
35592;SDS011;64447;52.140;5.602;2023-01-26T08:49:36;74.13;;;27.65;;
35592;SDS011;64447;52.140;5.602;2023-01-26T08:52:02;77.30;;;30.13;;
35592;SDS011;64447;52.140;5.602;2023-01-26T08:54:28;68.57;;;27.85;;
35592;SDS011;64447;52.140;5.602;2023-01-26T08:56:53;77.50;;;30.33;;
35592;SDS011;64447;52.140;5.602;2023-01-26T08:59:19;78.78;;;29.70;;
35592;SDS011;64447;52.140;5.602;2023-01-26T09:01:44;77.45;;;30.65;;
35592;SDS011;64447;52.140;5.602;2023-01-26T09:07:34;68.60;;;26.30;;
35592;SDS011;64447;52.140;5.602;2023-01-26T09:09:59;81.22;;;28.25;;
35592;SDS011;64447;52.140;5.602;2023-01-26T09:12:25;73.50;;;27.85;;
35592;SDS011;64447;52.140;5.602;2023-01-26T09:14:50;70.20;;;29.23;;
35592;SDS011;64447;52.140;5.602;2023-01-26T09:17:16;74.55;;;29.67;;
35592;SDS011;64447;52.140;5.602;2023-01-26T09:19:42;64.43;;;25.77;;
35592;SDS011;64447;52.140;5.602;2023-01-26T09:22:08;77.55;;;28.60;;
35592;SDS011;64447;52.140;5.602;2023-01-26T09:24:34;73.00;;;27.50;;
35592;SDS011;64447;52.140;5.602;2023-01-26T09:26:59;72.35;;;27.10;;
35592;SDS011;64447;52.140;5.602;2023-01-26T09:29:25;73.72;;;29.77;;
35592;SDS011;64447;52.140;5.602;2023-01-26T09:31:50;72.28;;;27.75;;
35592;SDS011;64447;52.140;5.602;2023-01-26T09:37:38;63.47;;;25.45;;
35592;SDS011;64447;52.140;5.602;2023-01-26T09:40:04;69.80;;;25.67;;
35592;SDS011;64447;52.140;5.602;2023-01-26T09:50:18;62.75;;;25.88;;
35592;SDS011;64447;52.140;5.602;2023-01-26T09:55:21;58.42;;;24.50;;
35592;SDS011;64447;52.140;5.602;2023-01-26T09:57:52;66.95;;;25.63;;
35592;SDS011;64447;52.140;5.602;2023-01-26T10:00:25;68.57;;;25.77;;
35592;SDS011;64447;52.140;5.602;2023-01-26T10:02:59;68.65;;;25.58;;
35592;SDS011;64447;52.140;5.602;2023-01-26T10:08:02;69.03;;;25.33;;
35592;SDS011;64447;52.140;5.602;2023-01-26T10:10:34;67.72;;;23.15;;
35592;SDS011;64447;52.140;5.602;2023-01-26T10:13:02;67.72;;;23.73;;
35592;SDS011;64447;52.140;5.602;2023-01-26T10:15:33;68.03;;;22.98;;
35592;SDS011;64447;52.140;5.602;2023-01-26T10:18:05;58.67;;;21.23;;
35592;SDS011;64447;52.140;5.602;2023-01-26T10:20:39;63.83;;;22.83;;
35592;SDS011;64447;52.140;5.602;2023-01-26T10:23:12;54.90;;;19.80;;
35592;SDS011;64447;52.140;5.602;2023-01-26T10:25:40;56.10;;;19.15;;
35592;SDS011;64447;52.140;5.602;2023-01-26T10:28:15;58.80;;;19.33;;
35592;SDS011;64447;52.140;5.602;2023-01-26T10:30:45;59.03;;;18.95;;
35592;SDS011;64447;52.140;5.602;2023-01-26T10:33:19;59.22;;;19.73;;
35592;SDS011;64447;52.140;5.602;2023-01-26T10:35:56;59.72;;;18.13;;
35592;SDS011;64447;52.140;5.602;2023-01-26T10:41:00;60.20;;;17.60;;
35592;SDS011;64447;52.140;5.602;2023-01-26T10:48:50;48.55;;;14.77;;
35592;SDS011;64447;52.140;5.602;2023-01-26T10:53:51;39.70;;;13.20;;
35592;SDS011;64447;52.140;5.602;2023-01-26T10:56:42;50.78;;;17.23;;
35592;SDS011;64447;52.140;5.602;2023-01-26T10:59:14;50.75;;;16.30;;
35592;SDS011;64447;52.140;5.602;2023-01-26T11:01:52;36.30;;;10.95;;
35592;SDS011;64447;52.140;5.602;2023-01-26T11:04:20;44.22;;;11.23;;
35592;SDS011;64447;52.140;5.602;2023-01-26T11:06:46;40.45;;;12.88;;
35592;SDS011;64447;52.140;5.602;2023-01-26T11:09:19;37.85;;;11.20;;
35592;SDS011;64447;52.140;5.602;2023-01-26T11:12:23;34.22;;;9.57;;
35592;SDS011;64447;52.140;5.602;2023-01-26T11:14:42;35.45;;;10.18;;
35592;SDS011;64447;52.140;5.602;2023-01-26T11:20:50;34.72;;;8.98;;
35592;SDS011;64447;52.140;5.602;2023-01-26T11:38:59;21.08;;;4.90;;
35592;SDS011;64447;52.140;5.602;2023-01-26T11:43:53;29.33;;;5.60;;
35592;SDS011;64447;52.140;5.602;2023-01-26T11:58:12;24.02;;;4.55;;
35592;SDS011;64447;52.140;5.602;2023-01-26T12:00:47;23.10;;;5.75;;
35592;SDS011;64447;52.140;5.602;2023-01-26T12:06:10;21.02;;;4.63;;
35592;SDS011;64447;52.140;5.602;2023-01-26T12:08:41;24.63;;;4.65;;
35592;SDS011;64447;52.140;5.602;2023-01-26T12:11:18;20.88;;;4.75;;
35592;SDS011;64447;52.140;5.602;2023-01-26T12:16:32;22.27;;;4.97;;
35592;SDS011;64447;52.140;5.602;2023-01-26T12:19:04;15.75;;;4.32;;
35592;SDS011;64447;52.140;5.602;2023-01-26T12:21:43;20.80;;;4.40;;
35592;SDS011;64447;52.140;5.602;2023-01-26T12:24:11;21.40;;;4.30;;
35592;SDS011;64447;52.140;5.602;2023-01-26T12:26:49;21.75;;;3.88;;
35592;SDS011;64447;52.140;5.602;2023-01-26T12:34:32;13.25;;;3.28;;
35592;SDS011;64447;52.140;5.602;2023-01-26T12:45:19;20.67;;;3.38;;
35592;SDS011;64447;52.140;5.602;2023-01-26T12:51:28;15.60;;;4.40;;
35592;SDS011;64447;52.140;5.602;2023-01-26T12:54:13;14.68;;;3.47;;
35592;SDS011;64447;52.140;5.602;2023-01-26T12:56:54;19.17;;;3.22;;
35592;SDS011;64447;52.140;5.602;2023-01-26T12:59:27;16.15;;;3.33;;
35592;SDS011;64447;52.140;5.602;2023-01-26T13:01:59;15.85;;;3.45;;
35592;SDS011;64447;52.140;5.602;2023-01-26T13:07:56;12.10;;;2.78;;
35592;SDS011;64447;52.140;5.602;2023-01-26T13:10:26;8.05;;;2.65;;
35592;SDS011;64447;52.140;5.602;2023-01-26T13:12:54;14.80;;;2.97;;
35592;SDS011;64447;52.140;5.602;2023-01-26T13:15:23;12.05;;;2.83;;
35592;SDS011;64447;52.140;5.602;2023-01-26T13:17:57;12.38;;;2.97;;
35592;SDS011;64447;52.140;5.602;2023-01-26T13:23:45;9.43;;;2.58;;
35592;SDS011;64447;52.140;5.602;2023-01-26T13:28:40;13.90;;;2.13;;
35592;SDS011;64447;52.140;5.602;2023-01-26T13:31:06;12.90;;;2.83;;
35592;SDS011;64447;52.140;5.602;2023-01-26T13:33:33;10.57;;;3.35;;
35592;SDS011;64447;52.140;5.602;2023-01-26T13:36:01;12.05;;;3.28;;
35592;SDS011;64447;52.140;5.602;2023-01-26T13:38:33;10.60;;;2.30;;
35592;SDS011;64447;52.140;5.602;2023-01-26T13:41:26;12.98;;;2.38;;
35592;SDS011;64447;52.140;5.602;2023-01-26T13:43:53;12.02;;;2.40;;
35592;SDS011;64447;52.140;5.602;2023-01-26T13:46:25;11.15;;;2.45;;
35592;SDS011;64447;52.140;5.602;2023-01-26T13:48:53;11.90;;;3.08;;
35592;SDS011;64447;52.140;5.602;2023-01-26T13:51:30;16.13;;;3.78;;
35592;SDS011;64447;52.140;5.602;2023-01-26T13:54:10;10.10;;;2.53;;
35592;SDS011;64447;52.140;5.602;2023-01-26T13:56:38;13.20;;;3.28;;
35592;SDS011;64447;52.140;5.602;2023-01-26T13:59:09;12.05;;;2.45;;
35592;SDS011;64447;52.140;5.602;2023-01-26T14:01:43;18.55;;;3.75;;
35592;SDS011;64447;52.140;5.602;2023-01-26T14:04:11;17.75;;;3.35;;
35592;SDS011;64447;52.140;5.602;2023-01-26T14:06:42;12.75;;;2.92;;
35592;SDS011;64447;52.140;5.602;2023-01-26T14:09:16;9.50;;;2.67;;
35592;SDS011;64447;52.140;5.602;2023-01-26T14:11:43;18.13;;;2.92;;
35592;SDS011;64447;52.140;5.602;2023-01-26T14:14:28;14.57;;;3.15;;
35592;SDS011;64447;52.140;5.602;2023-01-26T14:16:57;19.42;;;3.38;;
35592;SDS011;64447;52.140;5.602;2023-01-26T14:19:23;14.98;;;3.15;;
35592;SDS011;64447;52.140;5.602;2023-01-26T14:21:50;15.63;;;2.60;;
35592;SDS011;64447;52.140;5.602;2023-01-26T14:24:25;12.85;;;3.80;;
35592;SDS011;64447;52.140;5.602;2023-01-26T14:26:53;18.83;;;3.20;;
35592;SDS011;64447;52.140;5.602;2023-01-26T14:29:26;14.32;;;3.35;;
35592;SDS011;64447;52.140;5.602;2023-01-26T14:31:54;12.02;;;2.58;;
35592;SDS011;64447;52.140;5.602;2023-01-26T14:34:23;12.65;;;3.13;;
35592;SDS011;64447;52.140;5.602;2023-01-26T14:37:04;16.10;;;2.78;;
35592;SDS011;64447;52.140;5.602;2023-01-26T14:39:32;10.82;;;2.50;;
35592;SDS011;64447;52.140;5.602;2023-01-26T14:41:58;9.88;;;3.08;;
35592;SDS011;64447;52.140;5.602;2023-01-26T14:44:24;13.90;;;2.97;;
35592;SDS011;64447;52.140;5.602;2023-01-26T14:49:32;13.10;;;2.97;;
35592;SDS011;64447;52.140;5.602;2023-01-26T14:52:16;9.50;;;2.42;;
35592;SDS011;64447;52.140;5.602;2023-01-26T14:55:31;12.63;;;2.60;;
35592;SDS011;64447;52.140;5.602;2023-01-26T14:58:00;7.10;;;2.05;;
35592;SDS011;64447;52.140;5.602;2023-01-26T15:00:36;12.90;;;3.13;;
35592;SDS011;64447;52.140;5.602;2023-01-26T15:03:03;10.00;;;2.60;;
35592;SDS011;64447;52.140;5.602;2023-01-26T15:05:38;10.35;;;2.60;;
35592;SDS011;64447;52.140;5.602;2023-01-26T15:08:17;10.68;;;2.58;;
35592;SDS011;64447;52.140;5.602;2023-01-26T15:13:44;12.02;;;3.10;;
35592;SDS011;64447;52.140;5.602;2023-01-26T15:19:20;13.35;;;2.20;;
35592;SDS011;64447;52.140;5.602;2023-01-26T15:22:27;13.43;;;2.78;;
35592;SDS011;64447;52.140;5.602;2023-01-26T15:25:00;11.27;;;2.33;;
35592;SDS011;64447;52.140;5.602;2023-01-26T15:27:30;20.23;;;3.78;;
35592;SDS011;64447;52.140;5.602;2023-01-26T15:29:58;11.05;;;2.50;;
35592;SDS011;64447;52.140;5.602;2023-01-26T15:32:26;12.90;;;3.20;;
35592;SDS011;64447;52.140;5.602;2023-01-26T15:38:18;13.10;;;2.80;;
35592;SDS011;64447;52.140;5.602;2023-01-26T15:40:44;14.50;;;4.03;;
35592;SDS011;64447;52.140;5.602;2023-01-26T15:43:16;12.38;;;2.65;;
35592;SDS011;64447;52.140;5.602;2023-01-26T15:45:47;8.82;;;2.92;;
35592;SDS011;64447;52.140;5.602;2023-01-26T15:48:15;11.13;;;2.40;;
35592;SDS011;64447;52.140;5.602;2023-01-26T15:54:03;12.38;;;2.97;;
35592;SDS011;64447;52.140;5.602;2023-01-26T15:56:29;12.95;;;2.78;;
35592;SDS011;64447;52.140;5.602;2023-01-26T15:58:55;12.88;;;2.90;;
35592;SDS011;64447;52.140;5.602;2023-01-26T16:01:21;15.48;;;3.22;;
35592;SDS011;64447;52.140;5.602;2023-01-26T16:03:48;17.15;;;2.97;;
35592;SDS011;64447;52.140;5.602;2023-01-26T16:09:36;15.18;;;4.43;;
35592;SDS011;64447;52.140;5.602;2023-01-26T16:12:01;14.00;;;2.75;;
35592;SDS011;64447;52.140;5.602;2023-01-26T16:14:27;10.35;;;3.00;;
35592;SDS011;64447;52.140;5.602;2023-01-26T16:16:52;13.25;;;2.40;;
35592;SDS011;64447;52.140;5.602;2023-01-26T16:19:18;10.65;;;2.83;;
35592;SDS011;64447;52.140;5.602;2023-01-26T16:21:44;13.95;;;2.95;;
35592;SDS011;64447;52.140;5.602;2023-01-26T16:24:10;11.77;;;2.55;;
35592;SDS011;64447;52.140;5.602;2023-01-26T16:26:36;9.65;;;2.40;;
35592;SDS011;64447;52.140;5.602;2023-01-26T16:29:02;11.65;;;2.08;;
35592;SDS011;64447;52.140;5.602;2023-01-26T16:31:28;10.25;;;2.30;;
35592;SDS011;64447;52.140;5.602;2023-01-26T16:33:55;10.23;;;1.73;;
35592;SDS011;64447;52.140;5.602;2023-01-26T16:39:44;10.43;;;2.05;;
35592;SDS011;64447;52.140;5.602;2023-01-26T16:42:10;12.80;;;2.42;;
35592;SDS011;64447;52.140;5.602;2023-01-26T16:44:42;5.03;;;1.60;;
35592;SDS011;64447;52.140;5.602;2023-01-26T16:47:09;11.00;;;2.70;;
35592;SDS011;64447;52.140;5.602;2023-01-26T16:49:35;4.68;;;2.13;;
35592;SDS011;64447;52.140;5.602;2023-01-26T16:52:00;6.53;;;2.50;;
35592;SDS011;64447;52.140;5.602;2023-01-26T16:54:26;5.05;;;1.95;;
35592;SDS011;64447;52.140;5.602;2023-01-26T16:56:52;10.63;;;1.90;;
35592;SDS011;64447;52.140;5.602;2023-01-26T16:59:17;9.00;;;1.85;;
35592;SDS011;64447;52.140;5.602;2023-01-26T17:01:43;7.07;;;2.35;;
35592;SDS011;64447;52.140;5.602;2023-01-26T17:04:09;6.85;;;2.38;;
35592;SDS011;64447;52.140;5.602;2023-01-26T17:09:57;29.75;;;15.60;;
35592;SDS011;64447;52.140;5.602;2023-01-26T17:12:22;12.10;;;2.38;;
35592;SDS011;64447;52.140;5.602;2023-01-26T17:14:48;18.55;;;8.77;;
35592;SDS011;64447;52.140;5.602;2023-01-26T17:17:13;16.73;;;6.00;;
35592;SDS011;64447;52.140;5.602;2023-01-26T17:19:39;10.77;;;2.50;;
35592;SDS011;64447;52.140;5.602;2023-01-26T17:22:04;10.88;;;2.70;;
35592;SDS011;64447;52.140;5.602;2023-01-26T17:24:30;9.57;;;2.55;;
35592;SDS011;64447;52.140;5.602;2023-01-26T17:26:56;8.93;;;2.30;;
35592;SDS011;64447;52.140;5.602;2023-01-26T17:29:21;15.45;;;3.63;;
35592;SDS011;64447;52.140;5.602;2023-01-26T17:31:47;11.88;;;2.80;;
35592;SDS011;64447;52.140;5.602;2023-01-26T17:34:12;16.30;;;3.58;;
35592;SDS011;64447;52.140;5.602;2023-01-26T17:40:00;14.32;;;2.58;;
35592;SDS011;64447;52.140;5.602;2023-01-26T17:42:26;11.10;;;2.70;;
35592;SDS011;64447;52.140;5.602;2023-01-26T17:44:52;15.32;;;3.00;;
35592;SDS011;64447;52.140;5.602;2023-01-26T17:47:18;17.50;;;3.20;;